Terminal Aerodrome Forecast
Issued by NWS

Home | Current Version | Previous Version | Graphics & Text | Print | Product List | Glossary On
Versions: 1 2 3 4 5 6 7 8 9 10 11 12 13 14 15 16 17 18 19
672
FTUS43 KBIS 222229 AAB
TAFDIK
TAF AMD
KDIK 222229Z 2222/2318 35008KT P6SM BKN060
     FM230200 06008KT P6SM SCT050 BKN080
     FM231200 08011KT P6SM BKN008
     FM231600 08015KT P6SM BKN010=

USA.gov is the U.S. government's official web portal to all federal, state and local government web resources and services.